Time;durP1;ratioP1;P1;durP2;ratioP2;P2;SDS_P1;SDS_P2;PMS_P1;PMS_P2;Temp;Humidity;BMP_temperature;BMP_pressure;BME280_temperature;BME280_humidity;BME280_pressure;Samples;Min_cycle;Max_cycle;Signal;HPM_P1;HPM_P2
2022/09/11 00:01:32;;;;;;;25.25;20.58;;;16.20;90.90;;;;;;4976299;28;20038;-72
2022/09/11 00:03:58;;;;;;;23.20;20.77;;;16.20;91.00;;;;;;4977979;28;20502;-72
2022/09/11 00:06:25;;;;;;;28.50;22.45;;;16.20;91.10;;;;;;4977333;28;20394;-73
2022/09/11 00:08:59;;;;;;;24.60;21.52;;;16.10;91.10;;;;;;4977623;28;20061;-72
2022/09/11 00:11:25;;;;;;;25.15;22.45;;;16.10;91.20;;;;;;4975353;28;20038;-72
2022/09/11 00:13:53;;;;;;;28.63;23.05;;;16.10;91.30;;;;;;4977914;28;20089;-73
2022/09/11 00:16:20;;;;;;;26.88;23.65;;;16.10;91.20;;;;;;4976366;28;20105;-72
2022/09/11 00:18:47;;;;;;;25.02;22.27;;;16.10;91.30;;;;;;4976819;28;21475;-72
2022/09/11 00:21:13;;;;;;;25.15;22.42;;;16.10;91.30;;;;;;4977102;28;20086;-72
2022/09/11 00:23:39;;;;;;;27.98;23.35;;;16.00;91.30;;;;;;4976466;28;20058;-72
2022/09/11 00:26:05;;;;;;;27.02;24.08;;;16.00;91.30;;;;;;4976070;28;20439;-73
2022/09/11 00:28:31;;;;;;;29.52;24.75;;;16.00;91.30;;;;;;4976200;28;20529;-72
2022/09/11 00:31:11;;;;;;;28.50;24.85;;;16.00;91.50;;;;;;4977756;28;20093;-72
2022/09/11 00:33:37;;;;;;;26.38;22.80;;;15.90;91.50;;;;;;4974881;28;20026;-73
2022/09/11 00:36:09;;;;;;;26.60;23.33;;;15.90;91.50;;;;;;4977685;28;20044;-72
2022/09/11 00:38:36;;;;;;;29.60;24.45;;;15.90;91.50;;;;;;4976950;28;20049;-72
2022/09/11 00:41:05;;;;;;;29.08;24.90;;;15.80;91.50;;;;;;4976374;28;20034;-73
2022/09/11 00:43:51;;;;;;;29.77;25.13;;;15.80;91.50;;;;;;4977902;28;20498;-72
2022/09/11 00:46:17;;;;;;;30.13;23.95;;;15.80;91.60;;;;;;4977505;28;20551;-73
2022/09/11 00:48:48;;;;;;;31.02;27.45;;;15.80;91.50;;;;;;4976684;28;20501;-72
2022/09/11 00:51:17;;;;;;;32.90;26.00;;;15.70;91.50;;;;;;4975202;28;20041;-72
2022/09/11 00:53:44;;;;;;;31.60;25.98;;;15.70;91.50;;;;;;4974665;28;20092;-73
2022/09/11 00:56:10;;;;;;;29.25;25.00;;;15.70;91.50;;;;;;4977976;28;20065;-72
2022/09/11 00:58:38;;;;;;;28.98;24.90;;;15.70;91.60;;;;;;4976585;28;20027;-72
2022/09/11 01:01:04;;;;;;;29.20;25.95;;;15.70;91.40;;;;;;4972694;28;20461;-72
2022/09/11 01:03:31;;;;;;;30.55;25.23;;;15.60;91.40;;;;;;4977022;28;20030;-72
2022/09/11 01:05:57;;;;;;;26.33;23.42;;;15.60;91.40;;;;;;4977834;28;20104;-73
2022/09/11 01:08:23;;;;;;;28.52;24.92;;;15.50;91.50;;;;;;4975821;28;20129;-73
2022/09/11 01:10:49;;;;;;;26.30;23.50;;;15.50;91.40;;;;;;4975980;28;20041;-73
2022/09/11 01:13:33;;;;;;;26.55;23.67;;;15.40;91.50;;;;;;4974789;28;20062;-73
2022/09/11 01:16:11;;;;;;;26.77;23.33;;;15.50;91.50;;;;;;4964517;28;20046;-73
2022/09/11 01:19:17;;;;;;;29.15;26.00;;;15.40;91.40;;;;;;4976047;28;20096;-72
2022/09/11 01:22:04;;;;;;;28.58;25.52;;;15.30;91.30;;;;;;4980199;28;20093;-73
2022/09/11 01:24:42;;;;;;;30.13;26.85;;;15.20;91.40;;;;;;4977583;28;20046;-72
2022/09/11 01:27:35;;;;;;;29.27;25.90;;;15.30;91.30;;;;;;4981957;28;20117;-73
2022/09/11 01:30:06;;;;;;;28.00;25.00;;;15.30;91.30;;;;;;4982900;28;20325;-74
2022/09/11 01:32:40;;;;;;;30.83;26.45;;;15.30;91.30;;;;;;4983899;28;20030;-74
2022/09/11 01:35:49;;;;;;;27.10;24.23;;;15.20;91.40;;;;;;4985783;28;20038;-73
2022/09/11 01:38:38;;;;;;;28.48;25.27;;;15.20;91.40;;;;;;4983389;28;20416;-73
2022/09/11 01:41:10;;;;;;;28.92;25.23;;;15.20;91.50;;;;;;4983085;28;20506;-73
2022/09/11 01:43:45;;;;;;;30.70;25.05;;;15.20;91.40;;;;;;4982435;28;20038;-73
2022/09/11 01:46:15;;;;;;;31.85;26.67;;;15.10;91.30;;;;;;4984211;28;20034;-73
2022/09/11 01:48:47;;;;;;;28.70;25.70;;;15.10;91.30;;;;;;4985653;28;20437;-73
2022/09/11 01:51:18;;;;;;;27.85;24.27;;;15.10;91.40;;;;;;4986703;28;20042;-73
2022/09/11 01:53:48;;;;;;;28.23;24.27;;;15.10;91.40;;;;;;4988555;28;20043;-72
2022/09/11 01:56:22;;;;;;;28.92;25.17;;;15.00;91.30;;;;;;4988044;28;20042;-73
2022/09/11 01:58:52;;;;;;;30.42;24.45;;;15.00;91.30;;;;;;4987897;28;20064;-73
2022/09/11 02:01:21;;;;;;;27.30;23.63;;;15.00;91.30;;;;;;4986350;28;20735;-72
2022/09/11 02:03:59;;;;;;;28.92;24.40;;;14.90;91.20;;;;;;4982215;28;20034;-73
2022/09/11 02:06:31;;;;;;;26.85;24.00;;;14.90;91.10;;;;;;4983406;28;20061;-73
2022/09/11 02:09:01;;;;;;;27.90;24.42;;;14.80;91.10;;;;;;4982925;28;20640;-73
2022/09/11 02:11:33;;;;;;;30.30;25.65;;;14.80;91.20;;;;;;4998372;28;20133;-73
2022/09/11 02:14:25;;;;;;;32.72;26.50;;;14.80;91.20;;;;;;4988006;28;20038;-73
2022/09/11 02:17:13;;;;;;;30.80;26.70;;;14.90;91.30;;;;;;4962985;28;20134;-72
2022/09/11 02:19:40;;;;;;;31.98;27.30;;;14.90;91.30;;;;;;4965299;28;20042;-73
2022/09/11 02:22:06;;;;;;;32.15;26.38;;;14.80;91.30;;;;;;4966949;28;20035;-73
2022/09/11 02:24:32;;;;;;;32.63;28.00;;;14.80;91.20;;;;;;4967901;28;20074;-72
2022/09/11 02:27:05;;;;;;;38.88;31.65;;;14.80;91.30;;;;;;4976987;28;20415;-73
2022/09/11 02:29:32;;;;;;;36.60;30.35;;;14.80;91.40;;;;;;4985567;28;20683;-73
2022/09/11 02:32:00;;;;;;;36.20;30.77;;;14.80;91.50;;;;;;4985661;28;20082;-72
2022/09/11 02:34:32;;;;;;;33.35;28.80;;;14.80;91.60;;;;;;4995588;28;20101;-72
2022/09/11 02:37:20;;;;;;;37.67;30.88;;;14.80;91.60;;;;;;4982629;28;20041;-72
2022/09/11 02:39:57;;;;;;;35.33;30.92;;;14.80;91.70;;;;;;4978295;28;20050;-72
2022/09/11 02:43:25;;;;;;;35.92;29.52;;;14.80;91.70;;;;;;4980796;28;20034;-72
2022/09/11 02:45:56;;;;;;;35.08;30.17;;;14.80;91.60;;;;;;4959305;28;20093;-71
2022/09/11 02:48:49;;;;;;;35.63;30.80;;;14.80;91.70;;;;;;4960367;28;20046;-72
2022/09/11 02:51:24;;;;;;;38.60;30.85;;;14.70;91.70;;;;;;4979038;28;20030;-72
2022/09/11 02:54:01;;;;;;;35.72;30.88;;;14.70;91.70;;;;;;4981474;28;20045;-73
2022/09/11 02:57:01;;;;;;;39.17;32.75;;;14.70;91.70;;;;;;4979796;28;20485;-73
2022/09/11 02:59:45;;;;;;;38.70;32.67;;;14.70;91.70;;;;;;4975098;28;20058;-73
2022/09/11 03:02:13;;;;;;;39.23;31.23;;;14.70;91.80;;;;;;4982857;28;20034;-73
2022/09/11 03:04:40;;;;;;;33.90;29.98;;;14.70;91.70;;;;;;4992619;28;20034;-73
2022/09/11 03:07:06;;;;;;;35.38;30.38;;;14.70;91.70;;;;;;4983369;28;20398;-72
2022/09/11 03:09:33;;;;;;;37.85;31.27;;;14.70;91.70;;;;;;4983441;28;20168;-73
2022/09/11 03:12:00;;;;;;;38.05;31.55;;;14.60;91.70;;;;;;4983669;28;20038;-73
2022/09/11 03:14:25;;;;;;;36.67;31.60;;;14.60;91.70;;;;;;4981567;28;20494;-73
2022/09/11 03:16:51;;;;;;;41.13;33.58;;;14.60;91.70;;;;;;4971468;28;20074;-72
2022/09/11 03:19:17;;;;;;;41.08;33.70;;;14.60;91.70;;;;;;4966003;28;20046;-73
2022/09/11 03:21:42;;;;;;;42.92;34.33;;;14.60;91.70;;;;;;4960973;28;20368;-73
2022/09/11 03:24:09;;;;;;;38.55;33.25;;;14.60;91.70;;;;;;4961156;28;20032;-73
2022/09/11 03:26:36;;;;;;;38.03;33.17;;;14.60;91.70;;;;;;4955138;28;20059;-73
2022/09/11 03:29:02;;;;;;;43.15;36.67;;;14.60;91.80;;;;;;4945730;28;20692;-73
2022/09/11 03:31:28;;;;;;;46.75;38.45;;;14.70;91.90;;;;;;4958033;28;20078;-72
2022/09/11 03:33:54;;;;;;;45.55;37.60;;;14.70;92.00;;;;;;4952798;28;20121;-73
2022/09/11 03:36:21;;;;;;;48.97;40.00;;;14.80;92.00;;;;;;4949656;28;20384;-73
2022/09/11 03:38:47;;;;;;;45.60;37.90;;;14.80;92.00;;;;;;4993582;28;20402;-72
2022/09/11 03:41:13;;;;;;;44.60;36.30;;;14.80;91.90;;;;;;4955323;28;20031;-73
2022/09/11 03:43:39;;;;;;;46.05;36.80;;;14.90;91.90;;;;;;4958629;28;20541;-72
2022/09/11 03:46:05;;;;;;;46.13;36.80;;;14.90;91.90;;;;;;4962854;28;20035;-72
2022/09/11 03:48:31;;;;;;;44.05;36.67;;;14.90;91.90;;;;;;4954284;28;20398;-73
2022/09/11 03:50:57;;;;;;;47.30;40.13;;;15.00;91.90;;;;;;4957697;28;20067;-73
2022/09/11 03:53:23;;;;;;;48.30;38.80;;;14.90;91.90;;;;;;4953992;28;20038;-72
2022/09/11 03:55:49;;;;;;;47.75;37.85;;;14.90;91.90;;;;;;4958256;28;20559;-73
2022/09/11 03:58:17;;;;;;;45.78;36.97;;;14.90;91.90;;;;;;4961318;28;20034;-73
2022/09/11 04:00:43;;;;;;;47.60;39.22;;;14.90;91.90;;;;;;4960650;28;20062;-72
2022/09/11 04:03:10;;;;;;;43.88;37.47;;;14.80;92.00;;;;;;4980326;28;20360;-73
2022/09/11 04:05:37;;;;;;;43.60;36.10;;;14.70;92.00;;;;;;4979794;28;20057;-73
2022/09/11 04:08:04;;;;;;;49.72;38.83;;;14.70;92.10;;;;;;4977179;28;20452;-72
2022/09/11 04:10:32;;;;;;;52.72;39.05;;;14.70;92.10;;;;;;4976723;28;20606;-72
2022/09/11 04:12:57;;;;;;;44.70;37.15;;;14.70;92.20;;;;;;4981732;28;20046;-72
2022/09/11 04:15:23;;;;;;;41.72;35.47;;;14.70;92.30;;;;;;4980249;28;20042;-72
2022/09/11 04:17:49;;;;;;;46.58;37.05;;;14.70;92.30;;;;;;4977777;28;20045;-71
2022/09/11 04:20:14;;;;;;;46.50;37.33;;;14.60;92.30;;;;;;4976992;28;20046;-72
2022/09/11 04:22:40;;;;;;;42.38;35.88;;;14.60;92.30;;;;;;4981094;28;20026;-72
2022/09/11 04:25:07;;;;;;;44.17;36.50;;;14.60;92.40;;;;;;4979902;28;20084;-73
2022/09/11 04:27:33;;;;;;;39.92;33.65;;;14.60;92.40;;;;;;4981289;28;20026;-72
2022/09/11 04:29:58;;;;;;;44.80;35.53;;;14.60;92.40;;;;;;4980203;28;20037;-73
2022/09/11 04:32:24;;;;;;;40.50;33.17;;;14.60;92.30;;;;;;4979046;28;20034;-72
2022/09/11 04:34:50;;;;;;;42.88;35.22;;;14.60;92.30;;;;;;4980112;28;20045;-72
2022/09/11 04:37:18;;;;;;;45.28;36.80;;;14.60;92.30;;;;;;4982937;28;20048;-73
2022/09/11 04:39:44;;;;;;;45.47;37.47;;;14.60;92.30;;;;;;4982577;28;20050;-72
2022/09/11 04:42:10;;;;;;;43.00;35.35;;;14.60;92.40;;;;;;4980296;28;20084;-72
2022/09/11 04:44:36;;;;;;;44.47;36.00;;;14.60;92.30;;;;;;4978550;28;20542;-72
2022/09/11 04:47:01;;;;;;;42.92;35.03;;;14.60;92.30;;;;;;4982984;28;20493;-74
2022/09/11 04:49:27;;;;;;;42.28;33.13;;;14.70;92.40;;;;;;4980283;28;20050;-72
2022/09/11 04:51:53;;;;;;;43.72;35.80;;;14.70;92.30;;;;;;4981820;28;20069;-73
2022/09/11 04:54:22;;;;;;;40.50;33.83;;;14.70;92.30;;;;;;4977005;28;21204;-73
2022/09/11 04:56:49;;;;;;;43.67;36.00;;;14.70;92.30;;;;;;4980061;28;20542;-72
2022/09/11 04:59:18;;;;;;;38.92;34.70;;;14.80;92.30;;;;;;4977084;28;20096;-73
2022/09/11 05:01:45;;;;;;;42.28;35.45;;;14.80;92.30;;;;;;4979796;28;20026;-72
2022/09/11 05:04:14;;;;;;;42.53;36.65;;;14.80;92.30;;;;;;4979194;28;20155;-73
2022/09/11 05:06:44;;;;;;;45.08;37.25;;;14.80;92.30;;;;;;4978101;28;20034;-72
2022/09/11 05:09:10;;;;;;;42.10;36.38;;;14.80;92.30;;;;;;4963492;28;20038;-72
2022/09/11 05:11:38;;;;;;;40.35;35.08;;;14.80;92.30;;;;;;4962048;28;20031;-73
2022/09/11 05:14:04;;;;;;;44.70;36.22;;;14.80;92.30;;;;;;4966736;28;20042;-73
2022/09/11 05:16:33;;;;;;;42.95;36.15;;;14.90;92.20;;;;;;4979838;28;20530;-73
2022/09/11 05:19:00;;;;;;;44.30;34.90;;;14.90;92.20;;;;;;4965235;28;20503;-73
2022/09/11 05:21:27;;;;;;;37.97;31.75;;;14.90;92.10;;;;;;4957853;28;20390;-73
2022/09/11 05:23:57;;;;;;;40.72;32.53;;;14.90;92.00;;;;;;4961079;28;20371;-72
2022/09/11 05:26:25;;;;;;;43.95;35.13;;;14.90;91.90;;;;;;4952807;28;20122;-73
2022/09/11 05:29:00;;;;;;;56.65;47.75;;;14.90;91.90;;;;;;4960943;28;20035;-73
2022/09/11 05:31:27;;;;;;;47.17;39.85;;;15.00;91.90;;;;;;4970959;28;20053;-73
2022/09/11 05:33:59;;;;;;;46.10;40.72;;;14.90;91.80;;;;;;4979592;28;20499;-73
2022/09/11 05:36:25;;;;;;;42.80;34.25;;;15.00;91.90;;;;;;4976032;28;20042;-73
2022/09/11 05:38:51;;;;;;;40.22;33.00;;;15.00;91.90;;;;;;4975945;28;20960;-72
2022/09/11 05:41:17;;;;;;;41.90;34.30;;;15.10;91.80;;;;;;4979556;28;20250;-74
2022/09/11 05:43:43;;;;;;;46.55;34.72;;;15.10;91.70;;;;;;4979652;28;20352;-72
2022/09/11 05:46:11;;;;;;;41.95;34.38;;;15.10;91.60;;;;;;4981413;28;20043;-72
2022/09/11 05:48:37;;;;;;;38.92;33.17;;;15.10;91.40;;;;;;4978545;28;20058;-73
2022/09/11 05:51:11;;;;;;;35.03;29.70;;;15.10;91.20;;;;;;4979764;28;20038;-73
2022/09/11 05:53:38;;;;;;;37.05;31.80;;;15.10;91.20;;;;;;4980977;28;20367;-73
2022/09/11 05:56:11;;;;;;;34.35;29.90;;;15.10;91.10;;;;;;4981424;28;20034;-73
2022/09/11 05:58:37;;;;;;;33.58;29.70;;;15.10;90.90;;;;;;4979382;28;20042;-72
2022/09/11 06:01:10;;;;;;;37.13;31.00;;;15.20;90.90;;;;;;4979890;28;20045;-73
2022/09/11 06:03:37;;;;;;;33.58;29.65;;;15.10;90.80;;;;;;4978927;28;20545;-72
2022/09/11 06:06:05;;;;;;;41.75;35.35;;;15.20;90.90;;;;;;4980843;28;20035;-73
2022/09/11 06:08:33;;;;;;;35.78;31.30;;;15.10;90.80;;;;;;4980088;28;20126;-73
2022/09/11 06:11:01;;;;;;;40.85;33.25;;;15.10;91.00;;;;;;4980818;28;20050;-73
2022/09/11 06:13:30;;;;;;;39.17;33.70;;;15.20;91.10;;;;;;4978637;28;20057;-73
2022/09/11 06:15:56;;;;;;;41.65;34.85;;;15.30;91.10;;;;;;4982513;28;20378;-72
2022/09/11 06:18:22;;;;;;;35.60;30.65;;;15.40;91.00;;;;;;4984041;28;20474;-73
2022/09/11 06:21:06;;;;;;;38.35;32.50;;;15.40;91.00;;;;;;4982674;28;20050;-73
2022/09/11 06:23:33;;;;;;;34.22;29.00;;;15.50;90.90;;;;;;4983747;28;20190;-72
2022/09/11 06:26:07;;;;;;;40.55;36.15;;;15.50;90.90;;;;;;4985335;28;20046;-72
2022/09/11 06:28:34;;;;;;;46.92;35.17;;;15.50;90.80;;;;;;4983785;28;20031;-73
2022/09/11 06:31:04;;;;;;;43.17;35.85;;;15.60;91.00;;;;;;4981976;28;20482;-74
2022/09/11 06:33:39;;;;;;;39.38;34.83;;;15.60;90.90;;;;;;4968604;28;20071;-73
2022/09/11 06:36:10;;;;;;;41.47;34.83;;;15.70;90.90;;;;;;4981149;28;20042;-72
2022/09/11 06:38:37;;;;;;;37.72;33.15;;;15.80;90.80;;;;;;4986059;28;20707;-74
2022/09/11 06:41:05;;;;;;;39.40;33.22;;;15.80;90.80;;;;;;4997777;28;20236;-73
2022/09/11 06:43:31;;;;;;;38.80;32.95;;;16.00;90.80;;;;;;4994817;28;20026;-73
2022/09/11 06:46:04;;;;;;;41.75;35.13;;;16.10;90.80;;;;;;4990172;28;20430;-72
2022/09/11 06:48:30;;;;;;;43.65;36.83;;;16.10;90.60;;;;;;4979731;28;20034;-72
2022/09/11 06:50:56;;;;;;;42.08;35.78;;;16.20;90.50;;;;;;4959457;28;20042;-73
2022/09/11 06:53:22;;;;;;;39.28;35.05;;;16.30;90.30;;;;;;4962276;28;20044;-77
2022/09/11 06:55:47;;;;;;;48.83;39.60;;;16.40;90.30;;;;;;4965789;28;20461;-77
2022/09/11 06:58:13;;;;;;;40.17;34.45;;;16.50;90.10;;;;;;4962396;28;20050;-76
2022/09/11 07:00:39;;;;;;;40.75;36.35;;;16.50;90.10;;;;;;4971388;28;20042;-75
2022/09/11 07:03:05;;;;;;;44.13;37.25;;;16.60;90.00;;;;;;4986687;28;20066;-80
2022/09/11 07:05:30;;;;;;;36.20;32.15;;;16.80;89.70;;;;;;4976006;28;20054;-80
2022/09/11 07:07:56;;;;;;;42.65;36.38;;;16.90;89.60;;;;;;4980332;28;20041;-76
2022/09/11 07:10:22;;;;;;;40.65;35.90;;;17.10;89.30;;;;;;4982338;28;20097;-81
2022/09/11 07:12:51;;;;;;;40.45;34.47;;;17.20;89.00;;;;;;4980577;28;20113;-81
2022/09/11 07:15:17;;;;;;;37.05;32.85;;;17.30;88.60;;;;;;4980845;28;20050;-79
2022/09/11 07:17:43;;;;;;;39.95;35.35;;;17.40;88.60;;;;;;4979489;28;20077;-81
2022/09/11 07:20:09;;;;;;;37.72;32.50;;;17.60;88.20;;;;;;4979246;28;20542;-82
2022/09/11 07:22:35;;;;;;;38.95;34.67;;;17.70;88.30;;;;;;4975801;28;20042;-81
2022/09/11 07:25:01;;;;;;;41.15;35.47;;;17.70;87.60;;;;;;4965943;28;20043;-82
2022/09/11 07:27:27;;;;;;;39.60;35.38;;;17.80;87.10;;;;;;4971778;28;20026;-80
2022/09/11 07:29:53;;;;;;;41.65;34.30;;;17.90;86.80;;;;;;4962905;28;20137;-81
2022/09/11 07:32:19;;;;;;;37.20;33.30;;;18.10;86.20;;;;;;4955440;28;20047;-80
2022/09/11 07:34:46;;;;;;;34.40;31.00;;;18.30;85.90;;;;;;4954298;28;20042;-81
2022/09/11 07:37:12;;;;;;;37.00;33.05;;;18.40;85.70;;;;;;4957945;28;20487;-82
2022/09/11 07:39:38;;;;;;;35.42;31.75;;;18.60;85.20;;;;;;4955016;28;20047;-82
2022/09/11 07:42:06;;;;;;;35.70;31.90;;;18.60;85.10;;;;;;4955491;28;20035;-82
2022/09/11 07:44:32;;;;;;;37.17;33.15;;;18.80;84.60;;;;;;4957891;28;20067;-81
2022/09/11 07:46:57;;;;;;;32.75;29.38;;;18.90;83.70;;;;;;4965410;28;20359;-81
2022/09/11 07:49:23;;;;;;;35.67;31.85;;;19.00;83.40;;;;;;4954944;28;20476;-79
2022/09/11 07:51:49;;;;;;;35.67;31.88;;;19.20;82.80;;;;;;4956840;28;20038;-82
2022/09/11 07:54:14;;;;;;;35.80;32.00;;;19.40;82.30;;;;;;4953740;28;20367;-81
2022/09/11 07:56:40;;;;;;;42.88;38.40;;;19.40;82.50;;;;;;4958405;28;20035;-82
2022/09/11 07:59:07;;;;;;;44.17;39.60;;;19.40;82.20;;;;;;4952478;28;20043;-83
2022/09/11 08:01:33;;;;;;;43.95;39.70;;;19.50;82.00;;;;;;4952245;28;20031;-83
2022/09/11 08:04:04;;;;;;;45.05;40.75;;;19.60;82.60;;;;;;4953153;28;20345;-83
2022/09/11 08:06:33;;;;;;;43.67;39.47;;;19.80;81.40;;;;;;4976041;28;20060;-81
2022/09/11 08:09:05;;;;;;;37.75;33.92;;;20.10;81.40;;;;;;4975435;28;20066;-80
2022/09/11 08:11:32;;;;;;;38.25;34.45;;;20.20;80.50;;;;;;4976269;28;20027;-84
2022/09/11 08:13:58;;;;;;;33.00;29.83;;;20.40;79.80;;;;;;4971989;28;20063;-84
2022/09/11 08:16:25;;;;;;;34.90;31.42;;;20.40;79.40;;;;;;4978134;28;20558;-84
2022/09/11 08:18:53;;;;;;;32.83;29.50;;;20.50;80.20;;;;;;4976279;28;20562;-83
2022/09/11 08:21:21;;;;;;;30.33;27.02;;;20.70;79.10;;;;;;4976126;28;20097;-82
2022/09/11 08:23:47;;;;;;;24.40;21.92;;;20.80;78.20;;;;;;4976181;28;20038;-83
2022/09/11 08:26:34;;;;;;;24.23;21.75;;;20.90;77.50;;;;;;4976955;28;20075;-80
2022/09/11 08:29:00;;;;;;;27.58;22.65;;;21.10;77.80;;;;;;4985174;28;20038;-82
2022/09/11 08:31:27;;;;;;;25.35;22.58;;;21.30;76.40;;;;;;5000206;28;20045;-80
2022/09/11 08:33:54;;;;;;;25.40;22.35;;;21.40;75.80;;;;;;4991360;28;20275;-79
2022/09/11 08:36:20;;;;;;;26.88;22.67;;;21.50;75.10;;;;;;4993356;28;20039;-80
2022/09/11 08:38:46;;;;;;;24.33;21.60;;;21.50;75.80;;;;;;4979166;28;20036;-84
2022/09/11 08:41:27;;;;;;;22.52;20.30;;;21.70;75.60;;;;;;4978391;28;20046;-80
2022/09/11 08:44:00;;;;;;;20.85;17.67;;;21.90;74.60;;;;;;4975550;28;20466;-80
2022/09/11 08:46:39;;;;;;;18.33;16.52;;;22.00;74.70;;;;;;4977951;28;20120;-79
2022/09/11 08:49:17;;;;;;;18.88;16.70;;;22.00;73.00;;;;;;4976209;28;20062;-83
2022/09/11 08:51:46;;;;;;;20.73;17.80;;;22.10;73.50;;;;;;4975481;28;21412;-87
2022/09/11 08:54:26;;;;;;;15.18;13.07;;;22.30;72.90;;;;;;4976118;28;20038;-82
2022/09/11 08:57:04;;;;;;;16.20;14.52;;;22.40;70.70;;;;;;4973930;28;20322;-81
2022/09/11 08:59:53;;;;;;;15.25;12.48;;;22.40;71.50;;;;;;4976924;28;20048;-83
2022/09/11 09:02:37;;;;;;;16.88;14.70;;;22.20;71.00;;;;;;4978873;28;20509;-81
2022/09/11 09:05:36;;;;;;;20.75;16.30;;;22.00;71.70;;;;;;4979990;28;20046;-82
2022/09/11 09:08:16;;;;;;;17.10;15.30;;;21.80;72.70;;;;;;4971697;28;20081;-83
2022/09/11 09:10:42;;;;;;;17.35;15.65;;;21.70;72.50;;;;;;4961148;28;20105;-84
2022/09/11 09:13:34;;;;;;;18.77;16.23;;;21.60;73.20;;;;;;4950372;28;20051;-81
2022/09/11 09:16:24;;;;;;;15.65;11.73;;;21.50;73.80;;;;;;4952284;28;20050;-81
2022/09/11 09:19:09;;;;;;;16.85;15.05;;;21.30;72.50;;;;;;4951262;28;20074;-84
2022/09/11 09:21:47;;;;;;;15.55;13.52;;;21.40;72.80;;;;;;4943503;28;20043;-83
2022/09/11 09:24:18;;;;;;;18.58;15.57;;;21.40;73.40;;;;;;4952612;28;20038;-83
2022/09/11 09:26:55;;;;;;;17.60;15.38;;;21.50;73.00;;;;;;4949357;28;20030;-83
2022/09/11 09:29:23;;;;;;;19.10;15.77;;;21.90;72.20;;;;;;4946230;28;20394;-83
2022/09/11 09:31:58;;;;;;;14.73;13.02;;;21.90;70.60;;;;;;4950407;28;20037;-83
2022/09/11 09:34:29;;;;;;;15.75;13.13;;;21.90;71.00;;;;;;4949552;28;20495;-82
2022/09/11 09:37:05;;;;;;;17.92;14.77;;;21.90;70.70;;;;;;4967895;28;20462;-83
2022/09/11 09:39:31;;;;;;;15.40;12.13;;;21.90;71.50;;;;;;4971433;28;20043;-87
2022/09/11 09:41:59;;;;;;;18.20;14.50;;;22.10;71.30;;;;;;4969883;28;20377;-86
2022/09/11 09:44:36;;;;;;;15.52;13.57;;;22.10;70.40;;;;;;4972385;28;20444;-86
2022/09/11 09:47:03;;;;;;;15.18;12.02;;;22.10;70.60;;;;;;4974829;28;20034;-83
2022/09/11 09:49:46;;;;;;;14.93;9.68;;;22.30;68.40;;;;;;4977865;28;20473;-88
2022/09/11 09:52:21;;;;;;;10.63;7.20;;;22.60;68.30;;;;;;4983500;28;20249;-83
2022/09/11 09:54:58;;;;;;;;;;;22.90;64.60;;;;;;4981448;28;20061;-83
2022/09/11 09:57:35;;;;;;;11.38;7.53;;;23.20;64.90;;;;;;4977021;28;19917;-88
2022/09/11 10:00:09;;;;;;;13.35;7.28;;;23.60;63.00;;;;;;4978632;28;20034;-83
2022/09/11 10:02:44;;;;;;;10.55;4.75;;;23.90;62.60;;;;;;4979262;28;20084;-88
2022/09/11 10:05:19;;;;;;;7.90;5.28;;;24.30;60.40;;;;;;4978417;28;20034;-85
2022/09/11 10:07:52;;;;;;;12.93;9.25;;;24.60;58.70;;;;;;4987355;28;21539;-84
2022/09/11 10:10:37;;;;;;;10.68;8.50;;;24.90;59.20;;;;;;4985285;28;20034;-83
2022/09/11 10:13:23;;;;;;;10.27;8.52;;;24.60;59.70;;;;;;4976780;28;20482;-85
2022/09/11 10:15:51;;;;;;;13.00;9.88;;;24.60;59.70;;;;;;4961519;28;20636;-88
2022/09/11 10:18:34;;;;;;;16.95;10.75;;;24.90;59.40;;;;;;4966289;28;20037;-86
2022/09/11 10:21:12;;;;;;;11.00;9.85;;;25.20;58.90;;;;;;4959496;28;20074;-87
2022/09/11 10:23:56;;;;;;;11.90;10.70;;;25.30;59.10;;;;;;4964745;28;20040;-86
2022/09/11 10:26:33;;;;;;;13.68;11.90;;;25.50;57.80;;;;;;4965821;28;20636;-85
2022/09/11 10:29:06;;;;;;;13.48;11.00;;;25.00;59.00;;;;;;4966244;28;20374;-86
2022/09/11 10:31:34;;;;;;;14.93;11.80;;;24.50;61.10;;;;;;4968961;28;20089;-86
2022/09/11 10:34:00;;;;;;;15.25;11.82;;;24.10;61.90;;;;;;4960523;28;20031;-87
2022/09/11 10:36:28;;;;;;;12.35;10.45;;;23.60;64.00;;;;;;4961834;28;20030;-86
2022/09/11 10:38:59;;;;;;;13.10;10.07;;;23.50;65.00;;;;;;4964389;28;20493;-86
2022/09/11 10:41:33;;;;;;;13.52;10.60;;;23.20;65.30;;;;;;4960958;28;20074;-85
2022/09/11 10:44:06;;;;;;;11.77;8.97;;;23.10;64.80;;;;;;4968629;28;20027;-85
2022/09/11 10:46:36;;;;;;;10.10;7.83;;;22.90;64.10;;;;;;4960893;28;20285;-86
2022/09/11 10:49:04;;;;;;;11.82;7.95;;;22.80;63.90;;;;;;4980012;28;20301;-85
2022/09/11 10:51:32;;;;;;;10.52;7.60;;;22.60;63.20;;;;;;4986450;28;20027;-86
2022/09/11 10:54:26;;;;;;;12.38;9.10;;;22.70;64.70;;;;;;4985834;28;20034;-86
2022/09/11 10:56:55;;;;;;;10.70;7.60;;;22.60;64.30;;;;;;4961891;28;20047;-86
2022/09/11 10:59:33;;;;;;;12.10;8.80;;;22.50;64.70;;;;;;4965104;28;20104;-87
2022/09/11 11:01:59;;;;;;;10.00;8.10;;;22.70;64.10;;;;;;4961976;28;20121;-88
2022/09/11 11:04:29;;;;;;;10.60;7.40;;;23.10;62.20;;;;;;4962573;28;20451;-88
2022/09/11 11:07:24;;;;;;;7.35;5.82;;;23.40;62.10;;;;;;4963848;28;20023;-88
2022/09/11 11:10:07;;;;;;;6.57;4.18;;;23.30;58.90;;;;;;4979037;28;20043;-87
2022/09/11 11:12:37;;;;;;;8.88;4.78;;;23.10;59.40;;;;;;4972041;28;20038;-84
2022/09/11 11:15:09;;;;;;;12.82;7.40;;;23.00;60.30;;;;;;4981598;28;20039;-86
2022/09/11 11:17:49;;;;;;;9.60;6.60;;;23.00;62.50;;;;;;4983774;28;20034;-84
2022/09/11 11:20:30;;;;;;;11.93;7.43;;;22.90;62.10;;;;;;4984335;28;20099;-86
2022/09/11 11:23:05;;;;;;;8.43;5.82;;;23.30;61.10;;;;;;4982001;28;20045;-86
2022/09/11 11:25:43;;;;;;;8.40;6.07;;;23.80;60.60;;;;;;4981098;28;20085;-87
2022/09/11 11:28:18;;;;;;;9.55;6.38;;;24.40;58.50;;;;;;4985353;28;20041;-85
2022/09/11 11:30:55;;;;;;;8.43;5.13;;;24.50;56.70;;;;;;4976656;28;20054;-85
2022/09/11 11:33:41;;;;;;;8.45;6.70;;;24.90;56.90;;;;;;4972054;28;20942;-85
2022/09/11 11:36:09;;;;;;;12.15;8.02;;;25.10;56.50;;;;;;4974696;28;20034;-85
2022/09/11 11:38:59;;;;;;;8.85;5.43;;;25.00;54.20;;;;;;4975736;28;20092;-84
2022/09/11 11:41:32;;;;;;;7.65;5.63;;;24.50;55.10;;;;;;4974958;28;20474;-85
2022/09/11 11:44:02;;;;;;;8.57;5.67;;;24.30;56.20;;;;;;4973252;28;20042;-85
2022/09/11 11:46:37;;;;;;;9.80;6.85;;;24.00;57.80;;;;;;4974223;28;20034;-85
2022/09/11 11:49:35;;;;;;;11.52;7.45;;;23.90;59.20;;;;;;4977706;28;20030;-84
2022/09/11 11:52:29;;;;;;;9.30;5.55;;;23.90;60.00;;;;;;4978387;28;20029;-86
2022/09/11 11:55:04;;;;;;;;;;;24.00;59.40;;;;;;4971652;28;20038;-86
2022/09/11 11:57:33;;;;;;;;;;;24.40;58.90;;;;;;4977729;28;20269;-87
2022/09/11 12:00:10;;;;;;;9.10;6.60;;;24.90;55.80;;;;;;4980126;28;19925;-85
2022/09/11 12:02:48;;;;;;;13.23;6.28;;;25.20;56.80;;;;;;4975398;28;20776;-86
2022/09/11 12:05:22;;;;;;;10.35;6.57;;;25.10;55.90;;;;;;4973867;28;20508;-85
2022/09/11 12:07:49;;;;;;;7.25;4.82;;;24.70;55.90;;;;;;4977486;28;20026;-85
2022/09/11 12:10:34;;;;;;;6.57;3.70;;;24.60;56.60;;;;;;4977844;28;20480;-84
2022/09/11 12:13:04;;;;;;;6.93;4.13;;;24.60;57.80;;;;;;4980186;28;20052;-86
2022/09/11 12:15:33;;;;;;;8.52;4.63;;;24.80;55.10;;;;;;4971325;28;20066;-84
2022/09/11 12:18:01;;;;;;;9.93;6.15;;;24.70;55.70;;;;;;4974396;28;20046;-83
2022/09/11 12:20:27;;;;;;;10.85;6.00;;;24.60;56.90;;;;;;4958109;28;20087;-84
2022/09/11 12:22:52;;;;;;;8.32;5.00;;;24.40;56.60;;;;;;4958283;28;20113;-82
2022/09/11 12:25:18;;;;;;;9.82;5.13;;;24.20;57.50;;;;;;4966725;28;20056;-82
2022/09/11 12:27:50;;;;;;;10.27;6.30;;;24.10;58.60;;;;;;4967540;28;20069;-84
2022/09/11 12:30:16;;;;;;;7.97;5.20;;;24.10;58.20;;;;;;4960385;28;20039;-82
2022/09/11 12:32:50;;;;;;;7.88;4.47;;;24.00;60.50;;;;;;4977808;28;20057;-83
2022/09/11 12:35:49;;;;;;;5.57;3.22;;;24.00;58.20;;;;;;4966634;28;20114;-85
2022/09/11 12:38:43;;;;;;;5.95;3.47;;;24.10;58.20;;;;;;4971885;28;20058;-81
2022/09/11 12:41:12;;;;;;;;;;;24.00;57.80;;;;;;4954267;28;20051;-77
2022/09/11 12:43:40;;;;;;;5.45;2.97;;;24.10;58.60;;;;;;4953067;28;20004;-77
2022/09/11 12:46:12;;;;;;;7.50;3.75;;;24.00;58.20;;;;;;4953824;28;20086;-76
2022/09/11 12:48:42;;;;;;;5.68;3.20;;;24.10;58.50;;;;;;4958547;28;20048;-76
2022/09/11 12:51:34;;;;;;;5.97;2.78;;;24.10;57.50;;;;;;4974680;28;20038;-76
2022/09/11 12:54:03;;;;;;;6.72;3.65;;;24.10;57.10;;;;;;4976888;28;20249;-77